Terminal Aerodrome Forecast
Issued by NWS Charleston, WV

Current Version | Previous Version | Graphics & Text | Print | Product List | Glossary On
Versions: 1 2 3 4 5 6 7 8 9 10 11 12 13 14 15 16 17 18 19 20 21 22 23 24 25
085
FTUS41 KRLX 190905 AAA
TAFCRW
TAF AMD
KCRW 190905Z 1909/2006 16003KT P6SM OVC035 WS020/19035KT
     FM191030 16005KT P6SM -RA OVC035 WS020/21030KT
     FM191400 18007KT P6SM BKN050
     FM192000 21007G16KT P6SM BKN100=

USA.gov is the U.S. government's official web portal to all federal, state and local government web resources and services.